sensor_id;sensor_type;location;lat;lon;timestamp;P1;durP1;ratioP1;P2;durP2;ratioP2
35777;SDS011;21899;42.662;23.316;2024-01-15T00:01:28;35.88;;;17.25;;
35777;SDS011;21899;42.662;23.316;2024-01-15T00:03:54;35.15;;;16.45;;
35777;SDS011;21899;42.662;23.316;2024-01-15T00:06:19;37.67;;;19.73;;
35777;SDS011;21899;42.662;23.316;2024-01-15T00:08:45;34.08;;;14.88;;
35777;SDS011;21899;42.662;23.316;2024-01-15T00:11:11;41.25;;;18.08;;
35777;SDS011;21899;42.662;23.316;2024-01-15T00:13:36;41.28;;;16.90;;
35777;SDS011;21899;42.662;23.316;2024-01-15T00:16:01;43.17;;;16.77;;
35777;SDS011;21899;42.662;23.316;2024-01-15T00:18:27;36.25;;;18.27;;
35777;SDS011;21899;42.662;23.316;2024-01-15T00:20:53;37.17;;;17.55;;
35777;SDS011;21899;42.662;23.316;2024-01-15T00:23:18;41.42;;;18.67;;
35777;SDS011;21899;42.662;23.316;2024-01-15T00:25:44;37.80;;;18.10;;
35777;SDS011;21899;42.662;23.316;2024-01-15T00:28:09;35.22;;;17.83;;
35777;SDS011;21899;42.662;23.316;2024-01-15T00:30:34;35.88;;;16.17;;
35777;SDS011;21899;42.662;23.316;2024-01-15T00:33:00;32.80;;;15.68;;
35777;SDS011;21899;42.662;23.316;2024-01-15T00:35:25;44.13;;;18.63;;
35777;SDS011;21899;42.662;23.316;2024-01-15T00:37:51;42.80;;;18.98;;
35777;SDS011;21899;42.662;23.316;2024-01-15T00:40:17;41.42;;;19.10;;
35777;SDS011;21899;42.662;23.316;2024-01-15T00:42:42;42.85;;;19.10;;
35777;SDS011;21899;42.662;23.316;2024-01-15T00:45:08;41.22;;;17.52;;
35777;SDS011;21899;42.662;23.316;2024-01-15T00:47:34;36.50;;;17.00;;
35777;SDS011;21899;42.662;23.316;2024-01-15T00:50:00;35.50;;;15.88;;
35777;SDS011;21899;42.662;23.316;2024-01-15T00:52:25;35.80;;;15.82;;
35777;SDS011;21899;42.662;23.316;2024-01-15T00:54:51;28.45;;;15.75;;
35777;SDS011;21899;42.662;23.316;2024-01-15T00:57:16;27.35;;;14.05;;
35777;SDS011;21899;42.662;23.316;2024-01-15T00:59:44;29.83;;;13.75;;
35777;SDS011;21899;42.662;23.316;2024-01-15T01:02:09;35.28;;;15.43;;
35777;SDS011;21899;42.662;23.316;2024-01-15T01:04:35;30.67;;;14.45;;
35777;SDS011;21899;42.662;23.316;2024-01-15T01:07:00;27.77;;;13.52;;
35777;SDS011;21899;42.662;23.316;2024-01-15T01:09:26;32.13;;;14.65;;
35777;SDS011;21899;42.662;23.316;2024-01-15T01:11:54;34.70;;;15.88;;
35777;SDS011;21899;42.662;23.316;2024-01-15T01:14:19;37.03;;;15.10;;
35777;SDS011;21899;42.662;23.316;2024-01-15T01:16:45;40.30;;;15.60;;
35777;SDS011;21899;42.662;23.316;2024-01-15T01:19:10;43.42;;;17.73;;
35777;SDS011;21899;42.662;23.316;2024-01-15T01:21:36;37.53;;;16.77;;
35777;SDS011;21899;42.662;23.316;2024-01-15T01:24:01;35.28;;;15.63;;
35777;SDS011;21899;42.662;23.316;2024-01-15T01:26:27;33.58;;;15.55;;
35777;SDS011;21899;42.662;23.316;2024-01-15T01:28:52;32.95;;;15.65;;
35777;SDS011;21899;42.662;23.316;2024-01-15T01:31:18;32.85;;;14.73;;
35777;SDS011;21899;42.662;23.316;2024-01-15T01:33:43;30.13;;;15.13;;
35777;SDS011;21899;42.662;23.316;2024-01-15T01:36:09;26.95;;;13.18;;
35777;SDS011;21899;42.662;23.316;2024-01-15T01:38:35;27.15;;;12.18;;
35777;SDS011;21899;42.662;23.316;2024-01-15T01:41:01;36.03;;;12.98;;
35777;SDS011;21899;42.662;23.316;2024-01-15T01:43:27;25.95;;;12.60;;
35777;SDS011;21899;42.662;23.316;2024-01-15T01:45:52;31.25;;;13.35;;
35777;SDS011;21899;42.662;23.316;2024-01-15T01:48:21;28.90;;;12.20;;
35777;SDS011;21899;42.662;23.316;2024-01-15T01:50:47;24.67;;;11.35;;
35777;SDS011;21899;42.662;23.316;2024-01-15T01:53:13;29.23;;;12.35;;
35777;SDS011;21899;42.662;23.316;2024-01-15T01:55:38;21.05;;;11.35;;
35777;SDS011;21899;42.662;23.316;2024-01-15T01:58:04;22.65;;;11.18;;
35777;SDS011;21899;42.662;23.316;2024-01-15T02:00:30;32.40;;;16.08;;
35777;SDS011;21899;42.662;23.316;2024-01-15T02:02:58;35.83;;;14.40;;
35777;SDS011;21899;42.662;23.316;2024-01-15T02:05:25;33.97;;;14.25;;
35777;SDS011;21899;42.662;23.316;2024-01-15T02:07:51;29.67;;;14.88;;
35777;SDS011;21899;42.662;23.316;2024-01-15T02:10:17;24.90;;;14.00;;
35777;SDS011;21899;42.662;23.316;2024-01-15T02:12:43;32.78;;;15.20;;
35777;SDS011;21899;42.662;23.316;2024-01-15T02:15:09;31.42;;;12.93;;
35777;SDS011;21899;42.662;23.316;2024-01-15T02:17:34;33.45;;;14.80;;
35777;SDS011;21899;42.662;23.316;2024-01-15T02:20:00;29.65;;;14.35;;
35777;SDS011;21899;42.662;23.316;2024-01-15T02:22:26;25.60;;;14.73;;
35777;SDS011;21899;42.662;23.316;2024-01-15T02:24:51;27.92;;;14.35;;
35777;SDS011;21899;42.662;23.316;2024-01-15T02:27:16;30.50;;;15.18;;
35777;SDS011;21899;42.662;23.316;2024-01-15T02:29:42;35.17;;;18.20;;
35777;SDS011;21899;42.662;23.316;2024-01-15T02:32:08;33.97;;;17.55;;
35777;SDS011;21899;42.662;23.316;2024-01-15T02:34:34;30.08;;;15.93;;
35777;SDS011;21899;42.662;23.316;2024-01-15T02:37:00;34.42;;;17.70;;
35777;SDS011;21899;42.662;23.316;2024-01-15T02:39:25;31.30;;;15.00;;
35777;SDS011;21899;42.662;23.316;2024-01-15T02:41:51;26.05;;;11.25;;
35777;SDS011;21899;42.662;23.316;2024-01-15T02:44:16;23.95;;;10.85;;
35777;SDS011;21899;42.662;23.316;2024-01-15T02:46:42;23.98;;;11.23;;
35777;SDS011;21899;42.662;23.316;2024-01-15T02:49:07;22.35;;;11.13;;
35777;SDS011;21899;42.662;23.316;2024-01-15T02:51:32;24.65;;;12.25;;
35777;SDS011;21899;42.662;23.316;2024-01-15T02:53:58;28.45;;;11.00;;
35777;SDS011;21899;42.662;23.316;2024-01-15T02:56:23;21.17;;;10.45;;
35777;SDS011;21899;42.662;23.316;2024-01-15T02:58:49;25.48;;;12.65;;
35777;SDS011;21899;42.662;23.316;2024-01-15T03:01:14;20.88;;;11.82;;
35777;SDS011;21899;42.662;23.316;2024-01-15T03:03:40;24.58;;;12.20;;
35777;SDS011;21899;42.662;23.316;2024-01-15T03:06:06;25.10;;;12.07;;
35777;SDS011;21899;42.662;23.316;2024-01-15T03:08:31;25.67;;;12.65;;
35777;SDS011;21899;42.662;23.316;2024-01-15T03:10:57;27.98;;;12.30;;
35777;SDS011;21899;42.662;23.316;2024-01-15T03:13:22;20.95;;;11.73;;
35777;SDS011;21899;42.662;23.316;2024-01-15T03:15:48;23.95;;;12.25;;
35777;SDS011;21899;42.662;23.316;2024-01-15T03:18:13;22.10;;;11.05;;
35777;SDS011;21899;42.662;23.316;2024-01-15T03:20:39;30.50;;;13.77;;
35777;SDS011;21899;42.662;23.316;2024-01-15T03:23:04;25.13;;;12.75;;
35777;SDS011;21899;42.662;23.316;2024-01-15T03:25:30;30.02;;;13.23;;
35777;SDS011;21899;42.662;23.316;2024-01-15T03:27:55;24.63;;;12.68;;
35777;SDS011;21899;42.662;23.316;2024-01-15T03:30:21;22.83;;;10.43;;
35777;SDS011;21899;42.662;23.316;2024-01-15T03:32:46;24.50;;;11.75;;
35777;SDS011;21899;42.662;23.316;2024-01-15T03:35:12;29.67;;;12.35;;
35777;SDS011;21899;42.662;23.316;2024-01-15T03:37:38;25.52;;;11.90;;
35777;SDS011;21899;42.662;23.316;2024-01-15T03:40:03;31.40;;;14.60;;
35777;SDS011;21899;42.662;23.316;2024-01-15T03:42:29;27.48;;;12.32;;
35777;SDS011;21899;42.662;23.316;2024-01-15T03:44:55;26.65;;;13.48;;
35777;SDS011;21899;42.662;23.316;2024-01-15T03:47:20;25.33;;;12.52;;
35777;SDS011;21899;42.662;23.316;2024-01-15T03:49:46;24.30;;;13.57;;
35777;SDS011;21899;42.662;23.316;2024-01-15T03:52:11;27.90;;;13.27;;
35777;SDS011;21899;42.662;23.316;2024-01-15T03:54:37;29.50;;;12.70;;
35777;SDS011;21899;42.662;23.316;2024-01-15T03:57:02;26.90;;;13.20;;
35777;SDS011;21899;42.662;23.316;2024-01-15T03:59:28;43.97;;;21.52;;
35777;SDS011;21899;42.662;23.316;2024-01-15T04:01:53;42.20;;;18.77;;
35777;SDS011;21899;42.662;23.316;2024-01-15T04:04:19;50.92;;;21.50;;
35777;SDS011;21899;42.662;23.316;2024-01-15T04:06:45;42.60;;;20.23;;
35777;SDS011;21899;42.662;23.316;2024-01-15T04:09:11;42.15;;;20.25;;
35777;SDS011;21899;42.662;23.316;2024-01-15T04:11:38;36.42;;;16.35;;
35777;SDS011;21899;42.662;23.316;2024-01-15T04:14:03;40.63;;;17.27;;
35777;SDS011;21899;42.662;23.316;2024-01-15T04:16:29;31.35;;;15.07;;
35777;SDS011;21899;42.662;23.316;2024-01-15T04:18:54;33.33;;;15.38;;
35777;SDS011;21899;42.662;23.316;2024-01-15T04:21:20;32.65;;;17.35;;
35777;SDS011;21899;42.662;23.316;2024-01-15T04:23:45;32.28;;;15.65;;
35777;SDS011;21899;42.662;23.316;2024-01-15T04:26:11;33.10;;;17.30;;
35777;SDS011;21899;42.662;23.316;2024-01-15T04:28:36;35.78;;;15.75;;
35777;SDS011;21899;42.662;23.316;2024-01-15T04:31:01;41.17;;;17.30;;
35777;SDS011;21899;42.662;23.316;2024-01-15T04:33:27;35.83;;;18.50;;
35777;SDS011;21899;42.662;23.316;2024-01-15T04:35:52;44.55;;;16.98;;
35777;SDS011;21899;42.662;23.316;2024-01-15T04:38:18;43.40;;;21.42;;
35777;SDS011;21899;42.662;23.316;2024-01-15T04:40:43;42.30;;;20.33;;
35777;SDS011;21899;42.662;23.316;2024-01-15T04:43:09;51.30;;;22.90;;
35777;SDS011;21899;42.662;23.316;2024-01-15T04:45:34;50.35;;;22.27;;
35777;SDS011;21899;42.662;23.316;2024-01-15T04:48:00;43.53;;;22.27;;
35777;SDS011;21899;42.662;23.316;2024-01-15T04:50:25;52.45;;;24.50;;
35777;SDS011;21899;42.662;23.316;2024-01-15T04:52:51;66.75;;;27.63;;
35777;SDS011;21899;42.662;23.316;2024-01-15T04:55:16;62.70;;;28.48;;
35777;SDS011;21899;42.662;23.316;2024-01-15T04:57:42;67.75;;;29.23;;
35777;SDS011;21899;42.662;23.316;2024-01-15T05:00:07;61.63;;;26.48;;
35777;SDS011;21899;42.662;23.316;2024-01-15T05:02:33;75.03;;;33.83;;
35777;SDS011;21899;42.662;23.316;2024-01-15T05:04:59;74.90;;;30.52;;
35777;SDS011;21899;42.662;23.316;2024-01-15T05:07:24;52.90;;;26.63;;
35777;SDS011;21899;42.662;23.316;2024-01-15T05:09:50;54.17;;;25.15;;
35777;SDS011;21899;42.662;23.316;2024-01-15T05:12:15;55.47;;;24.95;;
35777;SDS011;21899;42.662;23.316;2024-01-15T05:14:41;54.78;;;24.90;;
35777;SDS011;21899;42.662;23.316;2024-01-15T05:17:06;47.80;;;22.65;;
35777;SDS011;21899;42.662;23.316;2024-01-15T05:19:32;56.17;;;26.85;;
35777;SDS011;21899;42.662;23.316;2024-01-15T05:21:57;56.63;;;25.40;;
35777;SDS011;21899;42.662;23.316;2024-01-15T05:24:23;61.03;;;26.00;;
35777;SDS011;21899;42.662;23.316;2024-01-15T05:26:48;59.58;;;25.23;;
35777;SDS011;21899;42.662;23.316;2024-01-15T05:29:14;59.67;;;22.85;;
35777;SDS011;21899;42.662;23.316;2024-01-15T05:31:39;54.40;;;25.67;;
35777;SDS011;21899;42.662;23.316;2024-01-15T05:34:05;55.03;;;27.25;;
35777;SDS011;21899;42.662;23.316;2024-01-15T05:36:30;60.85;;;27.48;;
35777;SDS011;21899;42.662;23.316;2024-01-15T05:38:56;51.75;;;25.65;;
35777;SDS011;21899;42.662;23.316;2024-01-15T05:41:21;53.22;;;27.10;;
35777;SDS011;21899;42.662;23.316;2024-01-15T05:43:47;64.68;;;30.48;;
35777;SDS011;21899;42.662;23.316;2024-01-15T05:46:12;68.10;;;29.83;;
35777;SDS011;21899;42.662;23.316;2024-01-15T05:48:38;72.00;;;33.80;;
35777;SDS011;21899;42.662;23.316;2024-01-15T05:51:03;64.47;;;31.85;;
35777;SDS011;21899;42.662;23.316;2024-01-15T05:53:29;71.65;;;33.30;;
35777;SDS011;21899;42.662;23.316;2024-01-15T05:55:54;74.35;;;35.28;;
35777;SDS011;21899;42.662;23.316;2024-01-15T05:58:21;76.30;;;33.83;;
35777;SDS011;21899;42.662;23.316;2024-01-15T06:00:46;72.75;;;32.22;;
35777;SDS011;21899;42.662;23.316;2024-01-15T06:03:13;60.95;;;32.05;;
35777;SDS011;21899;42.662;23.316;2024-01-15T06:05:38;64.10;;;31.75;;
35777;SDS011;21899;42.662;23.316;2024-01-15T06:08:04;58.22;;;27.15;;
35777;SDS011;21899;42.662;23.316;2024-01-15T06:10:30;49.00;;;24.63;;
35777;SDS011;21899;42.662;23.316;2024-01-15T06:12:56;57.20;;;27.15;;
35777;SDS011;21899;42.662;23.316;2024-01-15T06:15:21;70.68;;;29.13;;
35777;SDS011;21899;42.662;23.316;2024-01-15T06:17:47;72.45;;;32.88;;
35777;SDS011;21899;42.662;23.316;2024-01-15T06:20:12;65.82;;;31.95;;
35777;SDS011;21899;42.662;23.316;2024-01-15T06:22:38;67.13;;;32.17;;
35777;SDS011;21899;42.662;23.316;2024-01-15T06:25:06;68.88;;;31.92;;
35777;SDS011;21899;42.662;23.316;2024-01-15T06:27:33;63.83;;;31.15;;
35777;SDS011;21899;42.662;23.316;2024-01-15T06:29:59;93.38;;;41.72;;
35777;SDS011;21899;42.662;23.316;2024-01-15T06:32:24;63.63;;;31.15;;
35777;SDS011;21899;42.662;23.316;2024-01-15T06:34:50;67.20;;;30.15;;
35777;SDS011;21899;42.662;23.316;2024-01-15T06:37:15;70.78;;;33.55;;
35777;SDS011;21899;42.662;23.316;2024-01-15T06:39:41;76.65;;;38.17;;
35777;SDS011;21899;42.662;23.316;2024-01-15T06:42:06;67.03;;;31.10;;
35777;SDS011;21899;42.662;23.316;2024-01-15T06:44:32;67.40;;;31.77;;
35777;SDS011;21899;42.662;23.316;2024-01-15T06:46:57;77.50;;;36.63;;
35777;SDS011;21899;42.662;23.316;2024-01-15T06:49:27;58.67;;;29.40;;
35777;SDS011;21899;42.662;23.316;2024-01-15T06:51:54;74.57;;;33.60;;
35777;SDS011;21899;42.662;23.316;2024-01-15T06:54:20;85.78;;;36.60;;
35777;SDS011;21899;42.662;23.316;2024-01-15T06:56:46;80.25;;;38.20;;
35777;SDS011;21899;42.662;23.316;2024-01-15T06:59:11;72.43;;;34.90;;
35777;SDS011;21899;42.662;23.316;2024-01-15T07:01:37;79.32;;;37.08;;
35777;SDS011;21899;42.662;23.316;2024-01-15T07:04:02;82.57;;;35.47;;
35777;SDS011;21899;42.662;23.316;2024-01-15T07:06:28;74.75;;;36.00;;
35777;SDS011;21899;42.662;23.316;2024-01-15T07:08:55;77.28;;;34.00;;
35777;SDS011;21899;42.662;23.316;2024-01-15T07:11:21;70.22;;;33.58;;
35777;SDS011;21899;42.662;23.316;2024-01-15T07:13:47;67.20;;;32.28;;
35777;SDS011;21899;42.662;23.316;2024-01-15T07:16:13;69.13;;;32.63;;
35777;SDS011;21899;42.662;23.316;2024-01-15T07:18:38;65.95;;;33.70;;
35777;SDS011;21899;42.662;23.316;2024-01-15T07:21:04;57.70;;;28.42;;
35777;SDS011;21899;42.662;23.316;2024-01-15T07:23:30;57.15;;;30.33;;
35777;SDS011;21899;42.662;23.316;2024-01-15T07:25:56;61.38;;;29.25;;
35777;SDS011;21899;42.662;23.316;2024-01-15T07:28:22;58.95;;;29.27;;
35777;SDS011;21899;42.662;23.316;2024-01-15T07:30:48;54.63;;;25.25;;
35777;SDS011;21899;42.662;23.316;2024-01-15T07:33:13;68.47;;;35.20;;
35777;SDS011;21899;42.662;23.316;2024-01-15T07:35:39;49.45;;;25.13;;
35777;SDS011;21899;42.662;23.316;2024-01-15T07:38:04;57.30;;;26.45;;
35777;SDS011;21899;42.662;23.316;2024-01-15T07:40:30;55.40;;;28.27;;
35777;SDS011;21899;42.662;23.316;2024-01-15T07:42:55;54.85;;;26.85;;
35777;SDS011;21899;42.662;23.316;2024-01-15T07:45:21;59.38;;;27.92;;
35777;SDS011;21899;42.662;23.316;2024-01-15T07:47:46;62.03;;;28.98;;
35777;SDS011;21899;42.662;23.316;2024-01-15T07:50:12;62.42;;;29.02;;
35777;SDS011;21899;42.662;23.316;2024-01-15T07:52:38;66.05;;;33.40;;
35777;SDS011;21899;42.662;23.316;2024-01-15T07:55:05;58.92;;;30.85;;
35777;SDS011;21899;42.662;23.316;2024-01-15T07:57:30;43.97;;;23.42;;
35777;SDS011;21899;42.662;23.316;2024-01-15T07:59:56;48.13;;;24.02;;
35777;SDS011;21899;42.662;23.316;2024-01-15T08:02:21;57.90;;;24.92;;
35777;SDS011;21899;42.662;23.316;2024-01-15T08:04:47;61.80;;;28.33;;
35777;SDS011;21899;42.662;23.316;2024-01-15T08:07:13;56.42;;;27.70;;
35777;SDS011;21899;42.662;23.316;2024-01-15T08:09:38;64.18;;;29.48;;
35777;SDS011;21899;42.662;23.316;2024-01-15T08:12:04;68.63;;;33.42;;
35777;SDS011;21899;42.662;23.316;2024-01-15T08:14:31;66.75;;;31.33;;
35777;SDS011;21899;42.662;23.316;2024-01-15T08:16:57;63.03;;;29.45;;
35777;SDS011;21899;42.662;23.316;2024-01-15T08:19:22;49.83;;;22.58;;
35777;SDS011;21899;42.662;23.316;2024-01-15T08:21:48;54.28;;;25.27;;
35777;SDS011;21899;42.662;23.316;2024-01-15T08:24:14;48.60;;;23.63;;
35777;SDS011;21899;42.662;23.316;2024-01-15T08:26:39;51.83;;;24.67;;
35777;SDS011;21899;42.662;23.316;2024-01-15T08:29:05;41.85;;;21.52;;
35777;SDS011;21899;42.662;23.316;2024-01-15T08:31:30;46.50;;;24.08;;
35777;SDS011;21899;42.662;23.316;2024-01-15T08:33:56;47.63;;;23.08;;
35777;SDS011;21899;42.662;23.316;2024-01-15T08:36:22;46.35;;;21.90;;
35777;SDS011;21899;42.662;23.316;2024-01-15T08:38:49;41.65;;;20.27;;
35777;SDS011;21899;42.662;23.316;2024-01-15T08:41:14;47.50;;;24.63;;
35777;SDS011;21899;42.662;23.316;2024-01-15T08:43:40;48.33;;;21.00;;
35777;SDS011;21899;42.662;23.316;2024-01-15T08:46:05;49.70;;;22.95;;
35777;SDS011;21899;42.662;23.316;2024-01-15T08:48:31;47.17;;;23.90;;
35777;SDS011;21899;42.662;23.316;2024-01-15T08:50:56;55.15;;;26.92;;
35777;SDS011;21899;42.662;23.316;2024-01-15T08:53:22;60.47;;;27.83;;
35777;SDS011;21899;42.662;23.316;2024-01-15T08:55:47;56.85;;;28.13;;
35777;SDS011;21899;42.662;23.316;2024-01-15T08:58:14;51.75;;;26.23;;
35777;SDS011;21899;42.662;23.316;2024-01-15T09:00:39;57.15;;;28.50;;
35777;SDS011;21899;42.662;23.316;2024-01-15T09:03:05;54.35;;;22.85;;
35777;SDS011;21899;42.662;23.316;2024-01-15T09:05:31;46.72;;;25.52;;
35777;SDS011;21899;42.662;23.316;2024-01-15T09:07:56;46.22;;;22.70;;
35777;SDS011;21899;42.662;23.316;2024-01-15T09:10:22;51.83;;;24.40;;
35777;SDS011;21899;42.662;23.316;2024-01-15T09:12:47;51.85;;;24.25;;
35777;SDS011;21899;42.662;23.316;2024-01-15T09:15:14;44.55;;;23.02;;
35777;SDS011;21899;42.662;23.316;2024-01-15T09:17:40;44.35;;;20.65;;
35777;SDS011;21899;42.662;23.316;2024-01-15T09:20:05;51.60;;;24.35;;
35777;SDS011;21899;42.662;23.316;2024-01-15T09:22:34;43.08;;;21.13;;
35777;SDS011;21899;42.662;23.316;2024-01-15T09:24:59;52.00;;;21.20;;
35777;SDS011;21899;42.662;23.316;2024-01-15T09:27:25;47.88;;;21.40;;
35777;SDS011;21899;42.662;23.316;2024-01-15T09:29:53;44.45;;;21.83;;
35777;SDS011;21899;42.662;23.316;2024-01-15T09:32:19;36.05;;;21.00;;
35777;SDS011;21899;42.662;23.316;2024-01-15T09:34:48;45.92;;;21.80;;
35777;SDS011;21899;42.662;23.316;2024-01-15T09:37:13;42.92;;;20.65;;
35777;SDS011;21899;42.662;23.316;2024-01-15T09:39:39;32.13;;;17.00;;
35777;SDS011;21899;42.662;23.316;2024-01-15T09:42:05;48.55;;;23.05;;
35777;SDS011;21899;42.662;23.316;2024-01-15T09:44:31;44.67;;;22.20;;
35777;SDS011;21899;42.662;23.316;2024-01-15T09:46:57;56.22;;;24.77;;
35777;SDS011;21899;42.662;23.316;2024-01-15T09:49:23;53.47;;;26.15;;
35777;SDS011;21899;42.662;23.316;2024-01-15T09:51:49;49.45;;;22.10;;
35777;SDS011;21899;42.662;23.316;2024-01-15T09:54:15;45.72;;;22.65;;
35777;SDS011;21899;42.662;23.316;2024-01-15T09:56:51;48.60;;;23.35;;
35777;SDS011;21899;42.662;23.316;2024-01-15T09:59:17;50.50;;;26.65;;
35777;SDS011;21899;42.662;23.316;2024-01-15T10:01:44;59.22;;;29.92;;
35777;SDS011;21899;42.662;23.316;2024-01-15T10:04:10;96.80;;;47.33;;
35777;SDS011;21899;42.662;23.316;2024-01-15T10:06:38;93.47;;;49.05;;
35777;SDS011;21899;42.662;23.316;2024-01-15T10:09:07;109.32;;;51.55;;
35777;SDS011;21899;42.662;23.316;2024-01-15T10:11:33;102.68;;;50.53;;
35777;SDS011;21899;42.662;23.316;2024-01-15T10:13:58;119.93;;;57.20;;
35777;SDS011;21899;42.662;23.316;2024-01-15T10:16:25;107.45;;;52.83;;
35777;SDS011;21899;42.662;23.316;2024-01-15T10:18:51;106.10;;;54.50;;
35777;SDS011;21899;42.662;23.316;2024-01-15T10:21:16;103.32;;;52.53;;
35777;SDS011;21899;42.662;23.316;2024-01-15T10:23:42;92.80;;;47.90;;
35777;SDS011;21899;42.662;23.316;2024-01-15T10:26:08;83.13;;;39.60;;
35777;SDS011;21899;42.662;23.316;2024-01-15T10:28:33;70.35;;;37.97;;
35777;SDS011;21899;42.662;23.316;2024-01-15T10:30:59;38.90;;;21.77;;
35777;SDS011;21899;42.662;23.316;2024-01-15T10:33:25;53.65;;;23.38;;
35777;SDS011;21899;42.662;23.316;2024-01-15T10:35:55;55.17;;;26.50;;
35777;SDS011;21899;42.662;23.316;2024-01-15T10:38:22;45.97;;;25.00;;
35777;SDS011;21899;42.662;23.316;2024-01-15T10:40:52;55.17;;;25.27;;
35777;SDS011;21899;42.662;23.316;2024-01-15T10:43:18;50.83;;;24.75;;
35777;SDS011;21899;42.662;23.316;2024-01-15T10:45:47;47.22;;;24.50;;
35777;SDS011;21899;42.662;23.316;2024-01-15T10:48:16;48.22;;;25.73;;
35777;SDS011;21899;42.662;23.316;2024-01-15T10:50:43;54.75;;;26.88;;
35777;SDS011;21899;42.662;23.316;2024-01-15T10:53:12;48.17;;;27.38;;
35777;SDS011;21899;42.662;23.316;2024-01-15T10:55:40;55.83;;;28.63;;
35777;SDS011;21899;42.662;23.316;2024-01-15T10:58:06;52.58;;;26.60;;
35777;SDS011;21899;42.662;23.316;2024-01-15T11:00:33;65.00;;;29.83;;
35777;SDS011;21899;42.662;23.316;2024-01-15T11:03:03;54.83;;;26.88;;
35777;SDS011;21899;42.662;23.316;2024-01-15T11:05:36;50.70;;;25.48;;
35777;SDS011;21899;42.662;23.316;2024-01-15T11:08:05;40.60;;;21.77;;
35777;SDS011;21899;42.662;23.316;2024-01-15T11:13:14;43.45;;;21.25;;
35777;SDS011;21899;42.662;23.316;2024-01-15T11:15:55;44.70;;;21.42;;
35777;SDS011;21899;42.662;23.316;2024-01-15T11:18:35;44.78;;;21.17;;
35777;SDS011;21899;42.662;23.316;2024-01-15T11:26:28;39.63;;;19.30;;
35777;SDS011;21899;42.662;23.316;2024-01-15T11:28:54;32.55;;;17.70;;
35777;SDS011;21899;42.662;23.316;2024-01-15T11:31:56;36.78;;;17.15;;
35777;SDS011;21899;42.662;23.316;2024-01-15T11:34:15;32.92;;;19.30;;
35777;SDS011;21899;42.662;23.316;2024-01-15T11:41:56;36.00;;;17.77;;
35777;SDS011;21899;42.662;23.316;2024-01-15T11:44:23;36.83;;;18.63;;
35777;SDS011;21899;42.662;23.316;2024-01-15T11:46:57;38.15;;;19.67;;
35777;SDS011;21899;42.662;23.316;2024-01-15T11:52:02;35.75;;;19.30;;
35777;SDS011;21899;42.662;23.316;2024-01-15T11:54:32;33.80;;;18.15;;
35777;SDS011;21899;42.662;23.316;2024-01-15T11:57:02;34.13;;;18.13;;
35777;SDS011;21899;42.662;23.316;2024-01-15T11:59:33;37.15;;;18.83;;
35777;SDS011;21899;42.662;23.316;2024-01-15T12:01:59;37.35;;;20.52;;
35777;SDS011;21899;42.662;23.316;2024-01-15T12:04:25;32.67;;;18.00;;
35777;SDS011;21899;42.662;23.316;2024-01-15T12:06:51;39.22;;;19.38;;
35777;SDS011;21899;42.662;23.316;2024-01-15T12:09:19;40.70;;;20.00;;
35777;SDS011;21899;42.662;23.316;2024-01-15T12:11:46;34.05;;;18.77;;
35777;SDS011;21899;42.662;23.316;2024-01-15T12:14:20;37.47;;;18.52;;
35777;SDS011;21899;42.662;23.316;2024-01-15T12:16:47;32.03;;;17.52;;
35777;SDS011;21899;42.662;23.316;2024-01-15T12:19:13;37.15;;;17.77;;
35777;SDS011;21899;42.662;23.316;2024-01-15T12:21:39;30.10;;;17.05;;
35777;SDS011;21899;42.662;23.316;2024-01-15T12:24:06;30.08;;;16.00;;
35777;SDS011;21899;42.662;23.316;2024-01-15T12:26:32;25.23;;;15.02;;
35777;SDS011;21899;42.662;23.316;2024-01-15T12:29:01;30.45;;;14.52;;
35777;SDS011;21899;42.662;23.316;2024-01-15T12:31:29;31.40;;;14.70;;
35777;SDS011;21899;42.662;23.316;2024-01-15T12:33:55;36.72;;;15.93;;
35777;SDS011;21899;42.662;23.316;2024-01-15T12:36:21;31.92;;;15.32;;
35777;SDS011;21899;42.662;23.316;2024-01-15T12:38:46;27.90;;;14.95;;
35777;SDS011;21899;42.662;23.316;2024-01-15T12:41:12;26.05;;;12.70;;
35777;SDS011;21899;42.662;23.316;2024-01-15T12:43:38;24.33;;;13.77;;
35777;SDS011;21899;42.662;23.316;2024-01-15T12:46:03;28.08;;;12.65;;
35777;SDS011;21899;42.662;23.316;2024-01-15T12:48:29;30.58;;;13.63;;
35777;SDS011;21899;42.662;23.316;2024-01-15T12:50:55;24.75;;;13.70;;
35777;SDS011;21899;42.662;23.316;2024-01-15T12:53:20;25.05;;;13.65;;
35777;SDS011;21899;42.662;23.316;2024-01-15T12:55:46;31.15;;;13.55;;
35777;SDS011;21899;42.662;23.316;2024-01-15T12:58:12;25.42;;;12.38;;
35777;SDS011;21899;42.662;23.316;2024-01-15T13:00:38;22.05;;;11.82;;
35777;SDS011;21899;42.662;23.316;2024-01-15T13:03:04;23.15;;;12.70;;
35777;SDS011;21899;42.662;23.316;2024-01-15T13:05:31;28.70;;;14.80;;
35777;SDS011;21899;42.662;23.316;2024-01-15T13:07:57;27.00;;;12.85;;
35777;SDS011;21899;42.662;23.316;2024-01-15T13:10:24;27.00;;;14.30;;
35777;SDS011;21899;42.662;23.316;2024-01-15T13:12:50;35.58;;;16.42;;
35777;SDS011;21899;42.662;23.316;2024-01-15T13:15:16;31.90;;;13.43;;
35777;SDS011;21899;42.662;23.316;2024-01-15T13:17:42;26.08;;;13.43;;
35777;SDS011;21899;42.662;23.316;2024-01-15T13:20:07;25.40;;;13.52;;
35777;SDS011;21899;42.662;23.316;2024-01-15T13:22:33;23.83;;;12.43;;
35777;SDS011;21899;42.662;23.316;2024-01-15T13:24:59;26.50;;;14.00;;
35777;SDS011;21899;42.662;23.316;2024-01-15T13:27:25;28.67;;;14.00;;
35777;SDS011;21899;42.662;23.316;2024-01-15T13:29:50;27.08;;;14.75;;
35777;SDS011;21899;42.662;23.316;2024-01-15T13:32:23;27.35;;;14.23;;
35777;SDS011;21899;42.662;23.316;2024-01-15T13:34:51;27.35;;;14.18;;
35777;SDS011;21899;42.662;23.316;2024-01-15T13:37:16;25.38;;;13.10;;
35777;SDS011;21899;42.662;23.316;2024-01-15T13:39:42;26.88;;;13.48;;
35777;SDS011;21899;42.662;23.316;2024-01-15T13:42:08;31.25;;;13.77;;
35777;SDS011;21899;42.662;23.316;2024-01-15T13:44:36;26.83;;;14.10;;
35777;SDS011;21899;42.662;23.316;2024-01-15T13:47:02;31.05;;;14.95;;
35777;SDS011;21899;42.662;23.316;2024-01-15T13:49:28;33.83;;;15.40;;
35777;SDS011;21899;42.662;23.316;2024-01-15T13:51:54;30.30;;;16.48;;
35777;SDS011;21899;42.662;23.316;2024-01-15T13:54:19;31.17;;;14.60;;
35777;SDS011;21899;42.662;23.316;2024-01-15T13:56:46;35.08;;;15.88;;
35777;SDS011;21899;42.662;23.316;2024-01-15T13:59:12;29.23;;;16.38;;
35777;SDS011;21899;42.662;23.316;2024-01-15T14:01:38;30.45;;;15.98;;
35777;SDS011;21899;42.662;23.316;2024-01-15T14:04:03;36.00;;;17.45;;
35777;SDS011;21899;42.662;23.316;2024-01-15T14:06:29;36.15;;;17.15;;
35777;SDS011;21899;42.662;23.316;2024-01-15T14:08:55;29.85;;;16.13;;
35777;SDS011;21899;42.662;23.316;2024-01-15T14:11:20;31.60;;;17.05;;
35777;SDS011;21899;42.662;23.316;2024-01-15T14:13:45;31.80;;;15.85;;
35777;SDS011;21899;42.662;23.316;2024-01-15T14:16:12;30.45;;;15.93;;
35777;SDS011;21899;42.662;23.316;2024-01-15T14:18:38;33.28;;;16.27;;